sensor_id;sensor_type;location;lat;lon;timestamp;temperature;humidity
4687;DHT22;2357;47.316;-1.348;2023-07-09T00:02:25;22.50;99.90
4687;DHT22;2357;47.316;-1.348;2023-07-09T00:04:51;22.40;99.90
4687;DHT22;2357;47.316;-1.348;2023-07-09T00:09:47;22.40;99.90
4687;DHT22;2357;47.316;-1.348;2023-07-09T00:12:17;22.30;99.90
4687;DHT22;2357;47.316;-1.348;2023-07-09T00:14:44;22.20;99.90
4687;DHT22;2357;47.316;-1.348;2023-07-09T00:17:30;22.20;99.90
4687;DHT22;2357;47.316;-1.348;2023-07-09T00:19:57;22.30;99.90
4687;DHT22;2357;47.316;-1.348;2023-07-09T00:22:22;22.30;99.90
4687;DHT22;2357;47.316;-1.348;2023-07-09T00:24:50;22.30;99.90
4687;DHT22;2357;47.316;-1.348;2023-07-09T00:27:21;22.20;99.90
4687;DHT22;2357;47.316;-1.348;2023-07-09T00:29:47;22.10;99.90
4687;DHT22;2357;47.316;-1.348;2023-07-09T00:32:18;22.10;99.90
4687;DHT22;2357;47.316;-1.348;2023-07-09T00:34:48;22.10;99.90
4687;DHT22;2357;47.316;-1.348;2023-07-09T00:37:16;22.00;99.90
4687;DHT22;2357;47.316;-1.348;2023-07-09T00:39:46;22.00;99.90
4687;DHT22;2357;47.316;-1.348;2023-07-09T00:42:17;22.00;99.90
4687;DHT22;2357;47.316;-1.348;2023-07-09T00:44:49;22.00;99.90
4687;DHT22;2357;47.316;-1.348;2023-07-09T00:47:51;22.00;99.90
4687;DHT22;2357;47.316;-1.348;2023-07-09T00:52:58;21.90;99.90
4687;DHT22;2357;47.316;-1.348;2023-07-09T00:55:28;21.90;99.90
4687;DHT22;2357;47.316;-1.348;2023-07-09T00:58:00;21.90;99.90
4687;DHT22;2357;47.316;-1.348;2023-07-09T01:00:39;21.90;99.90
4687;DHT22;2357;47.316;-1.348;2023-07-09T01:03:32;21.90;99.90
4687;DHT22;2357;47.316;-1.348;2023-07-09T01:06:00;21.90;99.90
4687;DHT22;2357;47.316;-1.348;2023-07-09T01:08:30;21.90;99.90
4687;DHT22;2357;47.316;-1.348;2023-07-09T01:10:58;21.90;99.90
4687;DHT22;2357;47.316;-1.348;2023-07-09T01:13:28;21.80;99.90
4687;DHT22;2357;47.316;-1.348;2023-07-09T01:15:54;21.80;99.90
4687;DHT22;2357;47.316;-1.348;2023-07-09T01:18:21;21.80;99.90
4687;DHT22;2357;47.316;-1.348;2023-07-09T01:20:48;21.80;99.90
4687;DHT22;2357;47.316;-1.348;2023-07-09T01:23:14;21.80;99.90
4687;DHT22;2357;47.316;-1.348;2023-07-09T01:25:48;21.80;99.90
4687;DHT22;2357;47.316;-1.348;2023-07-09T01:28:18;21.50;99.90
4687;DHT22;2357;47.316;-1.348;2023-07-09T01:30:44;21.40;99.90
4687;DHT22;2357;47.316;-1.348;2023-07-09T01:33:10;21.30;99.90
4687;DHT22;2357;47.316;-1.348;2023-07-09T01:35:38;21.40;99.90
4687;DHT22;2357;47.316;-1.348;2023-07-09T01:38:07;21.40;99.90
4687;DHT22;2357;47.316;-1.348;2023-07-09T01:40:33;21.50;99.90
4687;DHT22;2357;47.316;-1.348;2023-07-09T01:43:00;21.40;99.90
4687;DHT22;2357;47.316;-1.348;2023-07-09T01:45:27;21.40;99.90
4687;DHT22;2357;47.316;-1.348;2023-07-09T01:47:52;21.40;99.90
4687;DHT22;2357;47.316;-1.348;2023-07-09T01:50:19;21.30;99.90
4687;DHT22;2357;47.316;-1.348;2023-07-09T01:52:46;21.40;99.90
4687;DHT22;2357;47.316;-1.348;2023-07-09T01:55:13;21.40;99.90
4687;DHT22;2357;47.316;-1.348;2023-07-09T01:57:42;21.40;99.90
4687;DHT22;2357;47.316;-1.348;2023-07-09T02:00:11;21.40;99.90
4687;DHT22;2357;47.316;-1.348;2023-07-09T02:02:43;21.30;99.90
4687;DHT22;2357;47.316;-1.348;2023-07-09T02:05:10;21.30;99.90
4687;DHT22;2357;47.316;-1.348;2023-07-09T02:07:36;21.20;99.90
4687;DHT22;2357;47.316;-1.348;2023-07-09T02:10:02;21.10;99.90
4687;DHT22;2357;47.316;-1.348;2023-07-09T02:12:28;21.20;99.90
4687;DHT22;2357;47.316;-1.348;2023-07-09T02:14:53;21.30;99.90
4687;DHT22;2357;47.316;-1.348;2023-07-09T02:17:19;21.30;99.90
4687;DHT22;2357;47.316;-1.348;2023-07-09T02:19:45;21.30;99.90
4687;DHT22;2357;47.316;-1.348;2023-07-09T02:22:11;21.30;99.90
4687;DHT22;2357;47.316;-1.348;2023-07-09T02:24:37;21.30;99.90
4687;DHT22;2357;47.316;-1.348;2023-07-09T02:27:05;20.90;99.90
4687;DHT22;2357;47.316;-1.348;2023-07-09T02:29:32;20.90;99.90
4687;DHT22;2357;47.316;-1.348;2023-07-09T02:31:58;20.90;99.90
4687;DHT22;2357;47.316;-1.348;2023-07-09T02:34:28;21.10;99.90
4687;DHT22;2357;47.316;-1.348;2023-07-09T02:36:56;21.10;99.90
4687;DHT22;2357;47.316;-1.348;2023-07-09T02:39:23;21.20;99.90
4687;DHT22;2357;47.316;-1.348;2023-07-09T02:41:49;21.20;99.90
4687;DHT22;2357;47.316;-1.348;2023-07-09T02:44:16;21.10;99.90
4687;DHT22;2357;47.316;-1.348;2023-07-09T02:46:42;21.10;99.90
4687;DHT22;2357;47.316;-1.348;2023-07-09T02:49:10;21.20;99.90
4687;DHT22;2357;47.316;-1.348;2023-07-09T02:51:36;21.10;99.90
4687;DHT22;2357;47.316;-1.348;2023-07-09T02:54:02;21.10;99.90
4687;DHT22;2357;47.316;-1.348;2023-07-09T02:56:28;21.10;99.90
4687;DHT22;2357;47.316;-1.348;2023-07-09T02:58:54;21.10;99.90
4687;DHT22;2357;47.316;-1.348;2023-07-09T03:01:20;21.10;99.90
4687;DHT22;2357;47.316;-1.348;2023-07-09T03:03:56;21.20;99.90
4687;DHT22;2357;47.316;-1.348;2023-07-09T03:06:23;21.20;99.90
4687;DHT22;2357;47.316;-1.348;2023-07-09T03:08:50;21.20;99.90
4687;DHT22;2357;47.316;-1.348;2023-07-09T03:11:16;21.30;99.90
4687;DHT22;2357;47.316;-1.348;2023-07-09T03:13:43;21.20;99.90
4687;DHT22;2357;47.316;-1.348;2023-07-09T03:16:09;21.20;99.90
4687;DHT22;2357;47.316;-1.348;2023-07-09T03:18:35;21.30;99.90
4687;DHT22;2357;47.316;-1.348;2023-07-09T03:21:00;21.30;99.90
4687;DHT22;2357;47.316;-1.348;2023-07-09T03:23:26;21.20;99.90
4687;DHT22;2357;47.316;-1.348;2023-07-09T03:25:52;21.20;99.90
4687;DHT22;2357;47.316;-1.348;2023-07-09T03:28:18;21.10;99.90
4687;DHT22;2357;47.316;-1.348;2023-07-09T03:30:45;21.10;99.90
4687;DHT22;2357;47.316;-1.348;2023-07-09T03:33:13;21.10;99.90
4687;DHT22;2357;47.316;-1.348;2023-07-09T03:35:39;21.10;99.90
4687;DHT22;2357;47.316;-1.348;2023-07-09T03:38:06;21.00;99.90
4687;DHT22;2357;47.316;-1.348;2023-07-09T03:40:32;20.90;99.90
4687;DHT22;2357;47.316;-1.348;2023-07-09T03:42:57;20.90;99.90
4687;DHT22;2357;47.316;-1.348;2023-07-09T03:45:23;20.60;99.90
4687;DHT22;2357;47.316;-1.348;2023-07-09T03:47:49;20.50;99.90
4687;DHT22;2357;47.316;-1.348;2023-07-09T03:50:15;20.60;99.90
4687;DHT22;2357;47.316;-1.348;2023-07-09T03:52:40;20.70;99.90
4687;DHT22;2357;47.316;-1.348;2023-07-09T03:55:07;20.70;99.90
4687;DHT22;2357;47.316;-1.348;2023-07-09T03:57:33;20.70;99.90
4687;DHT22;2357;47.316;-1.348;2023-07-09T03:59:59;20.60;99.90
4687;DHT22;2357;47.316;-1.348;2023-07-09T04:02:25;20.50;99.90
4687;DHT22;2357;47.316;-1.348;2023-07-09T04:04:51;20.40;99.90
4687;DHT22;2357;47.316;-1.348;2023-07-09T04:07:17;20.40;99.90
4687;DHT22;2357;47.316;-1.348;2023-07-09T04:09:42;20.40;99.90
4687;DHT22;2357;47.316;-1.348;2023-07-09T04:12:11;20.50;99.90
4687;DHT22;2357;47.316;-1.348;2023-07-09T04:14:37;20.30;99.90
4687;DHT22;2357;47.316;-1.348;2023-07-09T04:17:03;20.40;99.90
4687;DHT22;2357;47.316;-1.348;2023-07-09T04:19:28;20.50;99.90
4687;DHT22;2357;47.316;-1.348;2023-07-09T04:21:54;20.50;99.90
4687;DHT22;2357;47.316;-1.348;2023-07-09T04:24:20;20.50;99.90
4687;DHT22;2357;47.316;-1.348;2023-07-09T04:26:46;20.60;99.90
4687;DHT22;2357;47.316;-1.348;2023-07-09T04:29:12;20.50;99.90
4687;DHT22;2357;47.316;-1.348;2023-07-09T04:31:38;20.50;99.90
4687;DHT22;2357;47.316;-1.348;2023-07-09T04:34:05;20.40;99.90
4687;DHT22;2357;47.316;-1.348;2023-07-09T04:36:32;20.50;99.90
4687;DHT22;2357;47.316;-1.348;2023-07-09T04:38:58;20.40;99.90
4687;DHT22;2357;47.316;-1.348;2023-07-09T04:41:24;20.40;99.90
4687;DHT22;2357;47.316;-1.348;2023-07-09T04:43:50;20.40;99.90
4687;DHT22;2357;47.316;-1.348;2023-07-09T04:46:15;20.40;99.90
4687;DHT22;2357;47.316;-1.348;2023-07-09T04:48:41;20.50;99.90
4687;DHT22;2357;47.316;-1.348;2023-07-09T04:51:07;20.50;99.90
4687;DHT22;2357;47.316;-1.348;2023-07-09T04:53:32;20.40;99.90
4687;DHT22;2357;47.316;-1.348;2023-07-09T04:55:58;20.40;99.90
4687;DHT22;2357;47.316;-1.348;2023-07-09T04:58:24;20.50;99.90
4687;DHT22;2357;47.316;-1.348;2023-07-09T05:00:49;20.50;99.90
4687;DHT22;2357;47.316;-1.348;2023-07-09T05:03:18;20.50;99.90
4687;DHT22;2357;47.316;-1.348;2023-07-09T05:05:45;20.40;99.90
4687;DHT22;2357;47.316;-1.348;2023-07-09T05:08:12;20.30;99.90
4687;DHT22;2357;47.316;-1.348;2023-07-09T05:10:44;20.40;99.90
4687;DHT22;2357;47.316;-1.348;2023-07-09T05:13:10;20.40;99.90
4687;DHT22;2357;47.316;-1.348;2023-07-09T05:15:40;20.40;99.90
4687;DHT22;2357;47.316;-1.348;2023-07-09T05:18:06;20.40;99.90
4687;DHT22;2357;47.316;-1.348;2023-07-09T05:20:31;20.40;99.90
4687;DHT22;2357;47.316;-1.348;2023-07-09T05:22:57;20.40;99.90
4687;DHT22;2357;47.316;-1.348;2023-07-09T05:25:22;20.40;99.90
4687;DHT22;2357;47.316;-1.348;2023-07-09T05:27:48;20.40;99.90
4687;DHT22;2357;47.316;-1.348;2023-07-09T05:30:14;20.40;99.90
4687;DHT22;2357;47.316;-1.348;2023-07-09T05:32:39;20.50;99.90
4687;DHT22;2357;47.316;-1.348;2023-07-09T05:35:05;20.50;99.90
4687;DHT22;2357;47.316;-1.348;2023-07-09T05:37:31;20.40;99.90
4687;DHT22;2357;47.316;-1.348;2023-07-09T05:39:57;20.50;99.90
4687;DHT22;2357;47.316;-1.348;2023-07-09T05:42:22;20.50;99.90
4687;DHT22;2357;47.316;-1.348;2023-07-09T05:44:48;20.50;99.90
4687;DHT22;2357;47.316;-1.348;2023-07-09T05:47:14;20.50;99.90
4687;DHT22;2357;47.316;-1.348;2023-07-09T05:49:39;20.50;99.90
4687;DHT22;2357;47.316;-1.348;2023-07-09T05:52:05;20.50;99.90
4687;DHT22;2357;47.316;-1.348;2023-07-09T05:54:31;20.40;99.90
4687;DHT22;2357;47.316;-1.348;2023-07-09T05:56:57;20.40;99.90
4687;DHT22;2357;47.316;-1.348;2023-07-09T05:59:23;20.40;99.90
4687;DHT22;2357;47.316;-1.348;2023-07-09T06:01:48;20.40;99.90
4687;DHT22;2357;47.316;-1.348;2023-07-09T06:04:14;20.40;99.90
4687;DHT22;2357;47.316;-1.348;2023-07-09T06:06:41;20.40;99.90
4687;DHT22;2357;47.316;-1.348;2023-07-09T06:09:10;20.50;99.90
4687;DHT22;2357;47.316;-1.348;2023-07-09T06:11:35;20.70;99.90
4687;DHT22;2357;47.316;-1.348;2023-07-09T06:14:01;20.60;99.90
4687;DHT22;2357;47.316;-1.348;2023-07-09T06:16:27;20.70;99.90
4687;DHT22;2357;47.316;-1.348;2023-07-09T06:18:53;20.70;99.90
4687;DHT22;2357;47.316;-1.348;2023-07-09T06:21:18;20.80;99.90
4687;DHT22;2357;47.316;-1.348;2023-07-09T06:23:45;20.80;99.90
4687;DHT22;2357;47.316;-1.348;2023-07-09T06:26:11;20.70;99.90
4687;DHT22;2357;47.316;-1.348;2023-07-09T06:28:37;20.70;99.90
4687;DHT22;2357;47.316;-1.348;2023-07-09T06:31:03;20.70;99.90
4687;DHT22;2357;47.316;-1.348;2023-07-09T06:33:29;20.70;99.90
4687;DHT22;2357;47.316;-1.348;2023-07-09T06:35:59;20.60;99.90
4687;DHT22;2357;47.316;-1.348;2023-07-09T06:38:26;20.50;99.90
4687;DHT22;2357;47.316;-1.348;2023-07-09T06:40:52;20.50;99.90
4687;DHT22;2357;47.316;-1.348;2023-07-09T06:43:18;20.50;99.90
4687;DHT22;2357;47.316;-1.348;2023-07-09T06:48:19;20.50;99.90
4687;DHT22;2357;47.316;-1.348;2023-07-09T06:50:46;20.50;99.90
4687;DHT22;2357;47.316;-1.348;2023-07-09T06:53:12;20.60;99.90
4687;DHT22;2357;47.316;-1.348;2023-07-09T06:55:38;20.80;99.90
4687;DHT22;2357;47.316;-1.348;2023-07-09T06:58:03;20.90;99.90
4687;DHT22;2357;47.316;-1.348;2023-07-09T07:00:29;21.00;99.90
4687;DHT22;2357;47.316;-1.348;2023-07-09T07:02:54;21.10;99.90
4687;DHT22;2357;47.316;-1.348;2023-07-09T07:05:20;21.00;99.90
4687;DHT22;2357;47.316;-1.348;2023-07-09T07:07:46;21.10;99.90
4687;DHT22;2357;47.316;-1.348;2023-07-09T07:10:11;21.10;99.90
4687;DHT22;2357;47.316;-1.348;2023-07-09T07:12:43;21.00;99.90
4687;DHT22;2357;47.316;-1.348;2023-07-09T07:15:09;21.10;99.90
4687;DHT22;2357;47.316;-1.348;2023-07-09T07:17:35;21.10;99.90
4687;DHT22;2357;47.316;-1.348;2023-07-09T07:20:02;21.10;99.90
4687;DHT22;2357;47.316;-1.348;2023-07-09T07:22:27;21.20;99.90
4687;DHT22;2357;47.316;-1.348;2023-07-09T07:24:53;21.20;99.90
4687;DHT22;2357;47.316;-1.348;2023-07-09T07:27:18;21.30;99.90
4687;DHT22;2357;47.316;-1.348;2023-07-09T07:29:44;21.50;99.90
4687;DHT22;2357;47.316;-1.348;2023-07-09T07:32:11;21.50;99.90
4687;DHT22;2357;47.316;-1.348;2023-07-09T07:34:36;21.50;99.90
4687;DHT22;2357;47.316;-1.348;2023-07-09T07:37:02;21.40;99.90
4687;DHT22;2357;47.316;-1.348;2023-07-09T07:39:27;21.30;99.90
4687;DHT22;2357;47.316;-1.348;2023-07-09T07:41:54;21.20;99.90
4687;DHT22;2357;47.316;-1.348;2023-07-09T07:44:21;21.50;99.90
4687;DHT22;2357;47.316;-1.348;2023-07-09T07:46:47;21.50;99.90
4687;DHT22;2357;47.316;-1.348;2023-07-09T07:49:12;21.50;99.90
4687;DHT22;2357;47.316;-1.348;2023-07-09T07:51:38;21.50;99.90
4687;DHT22;2357;47.316;-1.348;2023-07-09T07:54:04;21.50;99.90
4687;DHT22;2357;47.316;-1.348;2023-07-09T07:56:30;21.60;99.90
4687;DHT22;2357;47.316;-1.348;2023-07-09T07:58:55;21.50;99.90
4687;DHT22;2357;47.316;-1.348;2023-07-09T08:01:21;21.70;99.90
4687;DHT22;2357;47.316;-1.348;2023-07-09T08:03:47;21.70;99.90
4687;DHT22;2357;47.316;-1.348;2023-07-09T08:06:12;21.70;99.90
4687;DHT22;2357;47.316;-1.348;2023-07-09T08:08:38;21.70;99.90
4687;DHT22;2357;47.316;-1.348;2023-07-09T08:11:05;21.80;99.90
4687;DHT22;2357;47.316;-1.348;2023-07-09T08:13:36;21.80;99.90
4687;DHT22;2357;47.316;-1.348;2023-07-09T08:16:02;21.90;99.90
4687;DHT22;2357;47.316;-1.348;2023-07-09T08:18:28;21.90;99.90
4687;DHT22;2357;47.316;-1.348;2023-07-09T08:20:53;21.70;99.90
4687;DHT22;2357;47.316;-1.348;2023-07-09T08:23:19;21.80;99.90
4687;DHT22;2357;47.316;-1.348;2023-07-09T08:25:53;22.00;99.90
4687;DHT22;2357;47.316;-1.348;2023-07-09T08:28:18;21.90;99.90
4687;DHT22;2357;47.316;-1.348;2023-07-09T08:30:44;21.80;99.90
4687;DHT22;2357;47.316;-1.348;2023-07-09T08:33:10;22.00;99.90
4687;DHT22;2357;47.316;-1.348;2023-07-09T08:35:36;22.10;99.90
4687;DHT22;2357;47.316;-1.348;2023-07-09T08:38:01;22.30;99.90
4687;DHT22;2357;47.316;-1.348;2023-07-09T08:40:27;22.30;99.90
4687;DHT22;2357;47.316;-1.348;2023-07-09T08:42:59;22.40;99.90
4687;DHT22;2357;47.316;-1.348;2023-07-09T08:46:01;22.30;99.90
4687;DHT22;2357;47.316;-1.348;2023-07-09T08:48:41;22.40;99.90
4687;DHT22;2357;47.316;-1.348;2023-07-09T08:51:37;22.60;99.90
4687;DHT22;2357;47.316;-1.348;2023-07-09T08:54:00;22.70;99.90
4687;DHT22;2357;47.316;-1.348;2023-07-09T08:56:28;22.80;99.90
4687;DHT22;2357;47.316;-1.348;2023-07-09T08:58:55;23.10;99.90
4687;DHT22;2357;47.316;-1.348;2023-07-09T09:01:51;23.30;99.90
4687;DHT22;2357;47.316;-1.348;2023-07-09T09:04:34;23.40;99.90
4687;DHT22;2357;47.316;-1.348;2023-07-09T09:07:14;23.00;99.90
4687;DHT22;2357;47.316;-1.348;2023-07-09T09:09:52;23.00;99.90
4687;DHT22;2357;47.316;-1.348;2023-07-09T09:12:33;22.50;99.90
4687;DHT22;2357;47.316;-1.348;2023-07-09T09:15:14;22.30;99.90
4687;DHT22;2357;47.316;-1.348;2023-07-09T09:17:41;22.70;99.90
4687;DHT22;2357;47.316;-1.348;2023-07-09T09:20:11;22.90;99.90
4687;DHT22;2357;47.316;-1.348;2023-07-09T09:22:50;23.10;99.90
4687;DHT22;2357;47.316;-1.348;2023-07-09T09:25:30;23.30;99.90
4687;DHT22;2357;47.316;-1.348;2023-07-09T09:27:58;23.50;99.90
4687;DHT22;2357;47.316;-1.348;2023-07-09T09:30:25;23.60;99.90
4687;DHT22;2357;47.316;-1.348;2023-07-09T09:35:39;23.50;99.90
4687;DHT22;2357;47.316;-1.348;2023-07-09T09:38:31;23.40;99.90
4687;DHT22;2357;47.316;-1.348;2023-07-09T09:41:01;23.40;99.90
4687;DHT22;2357;47.316;-1.348;2023-07-09T09:43:32;23.20;99.90
4687;DHT22;2357;47.316;-1.348;2023-07-09T09:45:59;23.30;99.90
4687;DHT22;2357;47.316;-1.348;2023-07-09T09:48:29;23.50;99.90
4687;DHT22;2357;47.316;-1.348;2023-07-09T09:50:55;23.50;99.90
4687;DHT22;2357;47.316;-1.348;2023-07-09T09:53:26;23.60;99.90
4687;DHT22;2357;47.316;-1.348;2023-07-09T09:55:54;23.80;99.90
4687;DHT22;2357;47.316;-1.348;2023-07-09T09:58:24;23.80;99.90
4687;DHT22;2357;47.316;-1.348;2023-07-09T10:00:52;24.00;99.90
4687;DHT22;2357;47.316;-1.348;2023-07-09T10:03:18;24.30;99.90
4687;DHT22;2357;47.316;-1.348;2023-07-09T10:05:45;24.50;99.90
4687;DHT22;2357;47.316;-1.348;2023-07-09T10:11:24;24.70;99.90
4687;DHT22;2357;47.316;-1.348;2023-07-09T10:13:56;25.00;99.90
4687;DHT22;2357;47.316;-1.348;2023-07-09T10:16:34;25.00;99.90
4687;DHT22;2357;47.316;-1.348;2023-07-09T10:19:24;24.80;99.90
4687;DHT22;2357;47.316;-1.348;2023-07-09T10:22:05;24.40;99.90
4687;DHT22;2357;47.316;-1.348;2023-07-09T10:33:13;25.00;99.90
4687;DHT22;2357;47.316;-1.348;2023-07-09T10:38:20;25.00;99.90
4687;DHT22;2357;47.316;-1.348;2023-07-09T10:40:56;24.70;99.90
4687;DHT22;2357;47.316;-1.348;2023-07-09T10:45:59;24.80;99.90
4687;DHT22;2357;47.316;-1.348;2023-07-09T10:48:47;24.80;99.90
4687;DHT22;2357;47.316;-1.348;2023-07-09T10:51:41;24.70;99.90
4687;DHT22;2357;47.316;-1.348;2023-07-09T10:54:32;24.50;99.90
4687;DHT22;2357;47.316;-1.348;2023-07-09T10:57:10;24.30;99.90
4687;DHT22;2357;47.316;-1.348;2023-07-09T10:59:40;24.10;99.90
4687;DHT22;2357;47.316;-1.348;2023-07-09T11:04:54;23.80;99.90
4687;DHT22;2357;47.316;-1.348;2023-07-09T11:07:55;23.80;99.90
4687;DHT22;2357;47.316;-1.348;2023-07-09T11:10:50;23.60;99.90
4687;DHT22;2357;47.316;-1.348;2023-07-09T11:13:28;23.50;99.90
4687;DHT22;2357;47.316;-1.348;2023-07-09T11:15:56;23.60;99.90
4687;DHT22;2357;47.316;-1.348;2023-07-09T11:18:26;23.60;99.90
4687;DHT22;2357;47.316;-1.348;2023-07-09T11:21:01;23.50;99.90
4687;DHT22;2357;47.316;-1.348;2023-07-09T11:23:39;23.60;99.90
4687;DHT22;2357;47.316;-1.348;2023-07-09T11:26:15;23.70;99.90
4687;DHT22;2357;47.316;-1.348;2023-07-09T11:28:51;23.80;99.90
4687;DHT22;2357;47.316;-1.348;2023-07-09T11:31:21;23.70;99.90
4687;DHT22;2357;47.316;-1.348;2023-07-09T11:33:59;24.00;99.90
4687;DHT22;2357;47.316;-1.348;2023-07-09T11:36:27;23.90;99.90
4687;DHT22;2357;47.316;-1.348;2023-07-09T11:38:53;24.10;99.90
4687;DHT22;2357;47.316;-1.348;2023-07-09T11:41:39;24.00;99.90
4687;DHT22;2357;47.316;-1.348;2023-07-09T11:47:04;23.80;99.90
4687;DHT22;2357;47.316;-1.348;2023-07-09T11:49:45;23.70;99.90
4687;DHT22;2357;47.316;-1.348;2023-07-09T11:52:12;23.60;99.90
4687;DHT22;2357;47.316;-1.348;2023-07-09T11:54:40;23.60;99.90
4687;DHT22;2357;47.316;-1.348;2023-07-09T11:57:11;23.60;99.90
4687;DHT22;2357;47.316;-1.348;2023-07-09T11:59:42;23.60;99.90
4687;DHT22;2357;47.316;-1.348;2023-07-09T12:02:17;23.70;99.90
4687;DHT22;2357;47.316;-1.348;2023-07-09T12:04:47;23.60;99.90
4687;DHT22;2357;47.316;-1.348;2023-07-09T12:07:14;23.40;99.90
4687;DHT22;2357;47.316;-1.348;2023-07-09T12:09:46;23.40;99.90
4687;DHT22;2357;47.316;-1.348;2023-07-09T12:12:28;23.70;99.90
4687;DHT22;2357;47.316;-1.348;2023-07-09T12:14:54;23.80;99.90
4687;DHT22;2357;47.316;-1.348;2023-07-09T12:17:26;24.10;99.90
4687;DHT22;2357;47.316;-1.348;2023-07-09T12:19:52;24.10;99.90
4687;DHT22;2357;47.316;-1.348;2023-07-09T12:22:21;24.10;99.90
4687;DHT22;2357;47.316;-1.348;2023-07-09T12:24:49;24.20;99.90
4687;DHT22;2357;47.316;-1.348;2023-07-09T12:27:25;24.30;99.90
4687;DHT22;2357;47.316;-1.348;2023-07-09T12:29:53;24.60;99.90
4687;DHT22;2357;47.316;-1.348;2023-07-09T12:32:19;24.90;99.90
4687;DHT22;2357;47.316;-1.348;2023-07-09T12:34:50;24.60;99.90
4687;DHT22;2357;47.316;-1.348;2023-07-09T12:37:17;25.00;99.90
4687;DHT22;2357;47.316;-1.348;2023-07-09T12:39:44;25.40;99.90
4687;DHT22;2357;47.316;-1.348;2023-07-09T12:42:16;25.20;99.90
4687;DHT22;2357;47.316;-1.348;2023-07-09T12:44:43;25.60;99.90
4687;DHT22;2357;47.316;-1.348;2023-07-09T12:47:13;25.90;99.90
4687;DHT22;2357;47.316;-1.348;2023-07-09T12:49:41;26.20;99.90
4687;DHT22;2357;47.316;-1.348;2023-07-09T12:52:19;26.00;99.90
4687;DHT22;2357;47.316;-1.348;2023-07-09T12:54:55;25.60;99.90
4687;DHT22;2357;47.316;-1.348;2023-07-09T12:57:22;25.60;99.90
4687;DHT22;2357;47.316;-1.348;2023-07-09T12:59:48;25.90;99.90
4687;DHT22;2357;47.316;-1.348;2023-07-09T13:02:18;25.90;99.90
4687;DHT22;2357;47.316;-1.348;2023-07-09T13:04:45;25.20;99.90
4687;DHT22;2357;47.316;-1.348;2023-07-09T13:07:25;25.70;99.90
4687;DHT22;2357;47.316;-1.348;2023-07-09T13:09:52;25.80;99.90
4687;DHT22;2357;47.316;-1.348;2023-07-09T13:12:20;25.80;99.90
4687;DHT22;2357;47.316;-1.348;2023-07-09T13:14:55;25.30;99.90
4687;DHT22;2357;47.316;-1.348;2023-07-09T13:17:21;25.40;99.90
4687;DHT22;2357;47.316;-1.348;2023-07-09T13:19:46;25.40;99.90
4687;DHT22;2357;47.316;-1.348;2023-07-09T13:22:14;25.50;99.90
4687;DHT22;2357;47.316;-1.348;2023-07-09T13:24:40;25.90;99.90
4687;DHT22;2357;47.316;-1.348;2023-07-09T13:27:11;26.00;99.90
4687;DHT22;2357;47.316;-1.348;2023-07-09T13:29:37;26.00;99.90
4687;DHT22;2357;47.316;-1.348;2023-07-09T13:32:09;25.90;99.90
4687;DHT22;2357;47.316;-1.348;2023-07-09T13:34:35;25.90;99.90
4687;DHT22;2357;47.316;-1.348;2023-07-09T13:37:01;25.90;99.90
4687;DHT22;2357;47.316;-1.348;2023-07-09T13:39:27;25.60;99.90
4687;DHT22;2357;47.316;-1.348;2023-07-09T13:41:53;25.80;99.90
4687;DHT22;2357;47.316;-1.348;2023-07-09T13:44:29;26.10;99.90
4687;DHT22;2357;47.316;-1.348;2023-07-09T13:46:58;26.00;99.90
4687;DHT22;2357;47.316;-1.348;2023-07-09T13:49:25;26.20;99.90
4687;DHT22;2357;47.316;-1.348;2023-07-09T13:51:54;26.10;99.90
4687;DHT22;2357;47.316;-1.348;2023-07-09T13:54:23;25.90;99.90
4687;DHT22;2357;47.316;-1.348;2023-07-09T13:56:50;25.80;99.90
4687;DHT22;2357;47.316;-1.348;2023-07-09T13:59:22;25.90;99.90
4687;DHT22;2357;47.316;-1.348;2023-07-09T14:01:50;25.60;99.90
4687;DHT22;2357;47.316;-1.348;2023-07-09T14:04:18;25.80;99.90
4687;DHT22;2357;47.316;-1.348;2023-07-09T14:06:44;26.10;99.90
4687;DHT22;2357;47.316;-1.348;2023-07-09T14:09:12;26.10;99.90
4687;DHT22;2357;47.316;-1.348;2023-07-09T14:11:46;26.10;99.90
4687;DHT22;2357;47.316;-1.348;2023-07-09T14:14:26;26.00;99.90
4687;DHT22;2357;47.316;-1.348;2023-07-09T14:16:56;25.90;99.90
4687;DHT22;2357;47.316;-1.348;2023-07-09T14:19:23;25.90;99.90
4687;DHT22;2357;47.316;-1.348;2023-07-09T14:21:49;25.90;99.90
4687;DHT22;2357;47.316;-1.348;2023-07-09T14:24:23;25.80;99.90
4687;DHT22;2357;47.316;-1.348;2023-07-09T14:26:50;25.80;99.90
4687;DHT22;2357;47.316;-1.348;2023-07-09T14:29:16;25.70;99.90
4687;DHT22;2357;47.316;-1.348;2023-07-09T14:31:44;25.80;99.90
4687;DHT22;2357;47.316;-1.348;2023-07-09T14:34:27;25.90;99.90
4687;DHT22;2357;47.316;-1.348;2023-07-09T14:36:54;26.00;99.90
4687;DHT22;2357;47.316;-1.348;2023-07-09T14:39:20;25.90;99.90
4687;DHT22;2357;47.316;-1.348;2023-07-09T14:41:48;25.90;99.90
4687;DHT22;2357;47.316;-1.348;2023-07-09T14:44:31;25.70;99.90
4687;DHT22;2357;47.316;-1.348;2023-07-09T14:47:00;26.10;99.90
4687;DHT22;2357;47.316;-1.348;2023-07-09T14:49:26;26.40;99.90
4687;DHT22;2357;47.316;-1.348;2023-07-09T14:51:53;26.60;99.90
4687;DHT22;2357;47.316;-1.348;2023-07-09T14:54:24;26.80;99.90
4687;DHT22;2357;47.316;-1.348;2023-07-09T14:56:51;26.60;99.90
4687;DHT22;2357;47.316;-1.348;2023-07-09T14:59:17;26.60;99.90
4687;DHT22;2357;47.316;-1.348;2023-07-09T15:01:44;26.60;99.90
4687;DHT22;2357;47.316;-1.348;2023-07-09T15:04:27;26.70;99.90
4687;DHT22;2357;47.316;-1.348;2023-07-09T15:06:54;26.40;99.90
4687;DHT22;2357;47.316;-1.348;2023-07-09T15:09:22;26.30;99.90
4687;DHT22;2357;47.316;-1.348;2023-07-09T15:11:51;26.30;99.90
4687;DHT22;2357;47.316;-1.348;2023-07-09T15:14:17;25.90;99.90
4687;DHT22;2357;47.316;-1.348;2023-07-09T15:16:43;26.00;99.90
4687;DHT22;2357;47.316;-1.348;2023-07-09T15:19:16;26.20;99.90
4687;DHT22;2357;47.316;-1.348;2023-07-09T15:21:42;26.30;99.90
4687;DHT22;2357;47.316;-1.348;2023-07-09T15:24:20;26.80;99.90
4687;DHT22;2357;47.316;-1.348;2023-07-09T15:26:52;27.30;99.90
4687;DHT22;2357;47.316;-1.348;2023-07-09T15:29:19;27.00;99.90
4687;DHT22;2357;47.316;-1.348;2023-07-09T15:31:45;26.90;99.90
4687;DHT22;2357;47.316;-1.348;2023-07-09T15:34:10;26.80;99.90
4687;DHT22;2357;47.316;-1.348;2023-07-09T15:36:36;27.00;99.90
4687;DHT22;2357;47.316;-1.348;2023-07-09T15:39:03;27.00;99.90
4687;DHT22;2357;47.316;-1.348;2023-07-09T15:41:28;26.60;99.90
4687;DHT22;2357;47.316;-1.348;2023-07-09T15:43:54;26.20;99.90
4687;DHT22;2357;47.316;-1.348;2023-07-09T15:46:21;26.40;99.90
4687;DHT22;2357;47.316;-1.348;2023-07-09T15:48:48;26.60;99.90
4687;DHT22;2357;47.316;-1.348;2023-07-09T15:51:15;27.50;99.90
4687;DHT22;2357;47.316;-1.348;2023-07-09T15:53:41;27.40;99.90
4687;DHT22;2357;47.316;-1.348;2023-07-09T15:56:18;27.10;99.90
4687;DHT22;2357;47.316;-1.348;2023-07-09T15:58:46;26.70;99.90
4687;DHT22;2357;47.316;-1.348;2023-07-09T16:01:14;27.10;99.90
4687;DHT22;2357;47.316;-1.348;2023-07-09T16:03:52;27.40;99.90
4687;DHT22;2357;47.316;-1.348;2023-07-09T16:06:18;27.60;99.90
4687;DHT22;2357;47.316;-1.348;2023-07-09T16:08:45;27.20;99.90
4687;DHT22;2357;47.316;-1.348;2023-07-09T16:11:16;26.80;99.90
4687;DHT22;2357;47.316;-1.348;2023-07-09T16:13:42;26.80;99.90
4687;DHT22;2357;47.316;-1.348;2023-07-09T16:16:20;27.10;99.90
4687;DHT22;2357;47.316;-1.348;2023-07-09T16:18:46;27.00;99.90
4687;DHT22;2357;47.316;-1.348;2023-07-09T16:21:23;26.70;99.90
4687;DHT22;2357;47.316;-1.348;2023-07-09T16:23:49;26.70;99.90
4687;DHT22;2357;47.316;-1.348;2023-07-09T16:26:15;26.60;99.90
4687;DHT22;2357;47.316;-1.348;2023-07-09T16:28:40;26.70;99.90
4687;DHT22;2357;47.316;-1.348;2023-07-09T16:31:06;26.60;99.90